Time;durP1;ratioP1;P1;durP2;ratioP2;P2;SDS_P1;SDS_P2;PMS_P1;PMS_P2;Temp;Humidity;BMP_temperature;BMP_pressure;BME280_temperature;BME280_humidity;BME280_pressure;Samples;Min_cycle;Max_cycle;Signal;HPM_P1;HPM_P2
2023/07/19 00:02:10;;;;;;;5.65;3.08;;;;;;;22.25;69.37;94763.38;5081562;28;20714;-78
2023/07/19 00:04:37;;;;;;;6.63;3.90;;;;;;;22.25;69.97;94746.81;5070465;28;20709;-78
2023/07/19 00:07:05;;;;;;;8.13;3.08;;;;;;;22.21;70.56;94740.50;5070778;28;20203;-78
2023/07/19 00:09:31;;;;;;;4.30;3.13;;;;;;;22.22;70.34;94745.63;5070863;28;20209;-78
2023/07/19 00:11:59;;;;;;;5.15;3.33;;;;;;;22.20;70.24;94741.69;5070970;28;20207;-77
2023/07/19 00:14:26;;;;;;;3.67;3.20;;;;;;;22.20;69.75;94744.47;5070143;28;20665;-77
2023/07/19 00:16:53;;;;;;;6.22;3.13;;;;;;;22.15;69.77;94751.16;5070536;28;20256;-78
2023/07/19 00:19:20;;;;;;;6.88;3.80;;;;;;;22.03;70.63;94739.75;5070278;28;20269;-76
2023/07/19 00:21:47;;;;;;;4.35;3.08;;;;;;;21.95;70.97;94745.28;5070665;28;20199;-77
2023/07/19 00:24:14;;;;;;;5.13;3.88;;;;;;;21.98;70.61;94733.47;5070215;28;20232;-76
2023/07/19 00:26:41;;;;;;;4.55;3.22;;;;;;;21.92;70.88;94734.25;5070375;28;20654;-77
2023/07/19 00:29:09;;;;;;;4.43;3.10;;;;;;;21.86;70.87;94746.88;5070335;28;20217;-77
2023/07/19 00:31:36;;;;;;;4.65;3.38;;;;;;;21.86;71.31;94742.16;5070312;28;20254;-77
2023/07/19 00:34:03;;;;;;;5.68;4.18;;;;;;;21.87;71.43;94745.69;5070172;28;20203;-78
2023/07/19 00:36:29;;;;;;;5.53;3.25;;;;;;;21.84;71.66;94744.53;5069427;28;20202;-76
2023/07/19 00:38:56;;;;;;;4.63;3.80;;;;;;;21.67;74.87;94759.13;5070230;28;20207;-77
2023/07/19 00:41:23;;;;;;;6.20;3.53;;;;;;;21.64;74.64;94751.63;5069943;28;20814;-77
2023/07/19 00:43:50;;;;;;;5.90;3.47;;;;;;;21.70;74.54;94752.81;5070008;28;20230;-76
2023/07/19 00:46:20;;;;;;;6.35;4.03;;;;;;;21.74;74.45;94753.56;5069957;28;20207;-77
2023/07/19 00:48:47;;;;;;;5.05;3.67;;;;;;;21.75;72.94;94752.41;5069750;28;20190;-77
2023/07/19 00:51:15;;;;;;;5.68;4.10;;;;;;;21.75;72.78;94746.88;5069419;28;20199;-77
2023/07/19 00:53:42;;;;;;;8.68;3.70;;;;;;;21.74;73.60;94750.03;5070232;28;20199;-77
2023/07/19 00:56:09;;;;;;;7.03;3.92;;;;;;;21.67;74.15;94734.28;5069746;28;20203;-77
2023/07/19 00:58:37;;;;;;;5.78;3.80;;;;;;;21.64;73.84;94744.13;5069310;28;20195;-77
2023/07/19 01:01:05;;;;;;;4.85;3.92;;;;;;;21.60;73.59;94739.81;5072976;28;20462;-77
2023/07/19 01:03:34;;;;;;;5.32;3.47;;;;;;;21.59;74.13;94744.53;5078813;28;20234;-77
2023/07/19 01:06:03;;;;;;;7.47;4.18;;;;;;;21.38;76.07;94743.75;5069704;28;20215;-77
2023/07/19 01:08:30;;;;;;;9.02;3.83;;;;;;;21.35;75.93;94750.06;5069632;28;20203;-77
2023/07/19 01:10:57;;;;;;;6.20;3.83;;;;;;;21.40;75.57;94746.91;5069547;28;20287;-77
2023/07/19 01:13:24;;;;;;;7.22;4.40;;;;;;;21.42;74.59;94747.31;5069518;28;20482;-77
2023/07/19 01:15:51;;;;;;;5.97;3.40;;;;;;;21.41;73.83;94731.94;5068963;28;20203;-77
2023/07/19 01:18:19;;;;;;;7.90;4.50;;;;;;;21.43;74.09;94741.41;5069054;28;20712;-77
2023/07/19 01:20:47;;;;;;;4.43;3.40;;;;;;;21.38;74.45;94733.53;5069203;28;20251;-77
2023/07/19 01:23:15;;;;;;;12.48;4.10;;;;;;;21.35;74.86;94730.75;5069222;28;20218;-77
2023/07/19 01:25:43;;;;;;;7.28;4.25;;;;;;;21.29;75.64;94727.63;5068820;28;20637;-76
2023/07/19 01:28:10;;;;;;;5.57;3.88;;;;;;;21.26;75.27;94726.44;5069189;28;20195;-77
2023/07/19 01:30:37;;;;;;;4.82;3.40;;;;;;;21.28;75.29;94735.09;5068993;28;20661;-76
2023/07/19 01:33:04;;;;;;;6.88;3.50;;;;;;;21.26;75.05;94737.47;5069216;28;20213;-77
2023/07/19 01:35:31;;;;;;;7.63;3.70;;;;;;;21.23;75.70;94738.25;5068877;28;20195;-77
2023/07/19 01:37:57;;;;;;;11.40;4.30;;;;;;;21.20;76.02;94739.03;5069291;28;20248;-77
2023/07/19 01:40:26;;;;;;;8.35;3.88;;;;;;;21.11;76.19;94718.53;5068190;28;20223;-78
2023/07/19 01:42:52;;;;;;;5.82;3.95;;;;;;;21.10;76.34;94727.97;5069562;28;20231;-76
2023/07/19 01:45:19;;;;;;;4.93;3.60;;;;;;;21.10;76.77;94734.25;5068325;28;20336;-77
2023/07/19 01:47:46;;;;;;;5.43;4.03;;;;;;;21.06;76.66;94733.47;5068966;28;20700;-75
2023/07/19 01:50:13;;;;;;;7.07;5.05;;;;;;;21.08;76.45;94731.09;5071415;28;20214;-76
2023/07/19 01:52:41;;;;;;;6.30;3.97;;;;;;;21.00;76.60;94732.28;5061181;28;20196;-78
2023/07/19 01:55:08;;;;;;;7.18;5.15;;;;;;;21.02;77.35;94740.94;5067421;28;20522;-77
2023/07/19 01:57:36;;;;;;;10.98;4.10;;;;;;;21.10;76.89;94733.47;5068118;28;20646;-77
2023/07/19 02:00:04;;;;;;;4.85;3.53;;;;;;;21.00;77.25;94729.53;5069987;28;20214;-76
2023/07/19 02:02:31;;;;;;;7.00;4.18;;;;;;;21.07;77.76;94739.75;5068139;28;20191;-76
2023/07/19 02:04:58;;;;;;;9.38;4.38;;;;;;;20.96;77.93;94739.75;5068433;28;20219;-77
2023/07/19 02:07:24;;;;;;;8.23;3.65;;;;;;;20.93;77.08;94735.03;5068395;28;20199;-76
2023/07/19 02:09:51;;;;;;;8.05;4.07;;;;;;;21.03;77.76;94741.75;5068381;28;20206;-77
2023/07/19 02:12:18;;;;;;;10.25;4.38;;;;;;;21.00;78.61;94735.03;5068162;28;20295;-76
2023/07/19 02:14:46;;;;;;;5.57;3.90;;;;;;;20.99;78.48;94735.44;5068357;28;20207;-76
2023/07/19 02:17:13;;;;;;;7.18;4.72;;;;;;;21.01;78.72;94717.34;5068637;28;20328;-76
2023/07/19 02:19:40;;;;;;;8.00;4.53;;;;;;;20.90;79.08;94713.78;5076780;28;20273;-78
2023/07/19 02:22:06;;;;;;;7.40;3.72;;;;;;;20.88;78.18;94705.13;5067918;28;20264;-77
2023/07/19 02:24:34;;;;;;;5.57;3.90;;;;;;;20.83;78.01;94703.53;5068112;28;20237;-77
2023/07/19 02:27:00;;;;;;;8.52;3.88;;;;;;;20.74;77.55;94705.09;5068479;28;20202;-78
2023/07/19 02:29:27;;;;;;;8.05;3.92;;;;;;;20.68;78.68;94712.16;5067837;28;20693;-76
2023/07/19 02:31:55;;;;;;;5.07;3.95;;;;;;;20.68;78.55;94718.44;5067930;28;20271;-75
2023/07/19 02:34:22;;;;;;;4.63;3.58;;;;;;;20.66;78.65;94703.50;5068359;28;20209;-76
2023/07/19 02:36:50;;;;;;;5.75;4.15;;;;;;;20.60;78.17;94694.06;5067545;28;20238;-76
2023/07/19 02:39:17;;;;;;;6.32;3.25;;;;;;;20.57;78.67;94701.91;5068208;28;20211;-76
2023/07/19 02:41:44;;;;;;;8.32;4.07;;;;;;;20.56;78.39;94694.84;5068574;28;20199;-76
2023/07/19 02:44:11;;;;;;;6.18;4.03;;;;;;;20.61;77.89;94701.13;5067637;28;20226;-76
2023/07/19 02:46:38;;;;;;;6.63;3.90;;;;;;;20.67;78.04;94705.06;5064640;28;20689;-76
2023/07/19 02:49:06;;;;;;;5.30;3.80;;;;;;;20.66;77.87;94703.50;5061014;28;20673;-78
2023/07/19 02:51:33;;;;;;;8.85;3.90;;;;;;;20.52;78.54;94699.53;5054411;28;20209;-77
2023/07/19 02:53:59;;;;;;;6.13;4.05;;;;;;;20.45;80.04;94698.72;5067902;28;20749;-77
2023/07/19 02:56:26;;;;;;;7.07;4.45;;;;;;;20.53;79.44;94689.31;5067781;28;20260;-77
2023/07/19 02:58:53;;;;;;;6.05;3.60;;;;;;;20.41;79.96;94697.94;5068074;28;20214;-77
2023/07/19 03:01:20;;;;;;;6.70;4.03;;;;;;;20.38;79.78;94693.19;5068896;28;20199;-78
2023/07/19 03:03:46;;;;;;;6.72;4.30;;;;;;;20.31;80.36;94696.69;5067955;28;20268;-78
2023/07/19 03:06:14;;;;;;;5.88;4.10;;;;;;;20.30;80.37;94695.13;5070161;28;20277;-78
2023/07/19 03:08:43;;;;;;;7.32;4.03;;;;;;;20.34;79.46;94697.88;5071579;28;20452;-78
2023/07/19 03:11:09;;;;;;;5.03;3.88;;;;;;;20.41;78.69;94697.94;5071604;28;20612;-77
2023/07/19 03:13:37;;;;;;;7.15;3.80;;;;;;;20.51;77.45;94700.72;5072061;28;20207;-78
2023/07/19 03:16:04;;;;;;;5.43;3.50;;;;;;;20.61;77.38;94698.38;5074596;28;20284;-78
2023/07/19 03:18:30;;;;;;;7.35;4.75;;;;;;;20.82;76.84;94696.44;5071535;28;20245;-78
2023/07/19 03:20:58;;;;;;;5.20;3.80;;;;;;;21.32;75.43;94692.97;5071219;28;20380;-78
2023/07/19 03:23:27;;;;;;;6.53;3.92;;;;;;;21.77;74.03;94694.09;5070883;28;20206;-78
2023/07/19 03:25:57;;;;;;;7.70;4.28;;;;;;;22.34;72.21;94701.03;5071541;28;20230;-77
2023/07/19 03:28:24;;;;;;;10.63;4.40;;;;;;;22.94;69.63;94688.13;5071343;28;20706;-77
2023/07/19 03:30:54;;;;;;;6.88;4.28;;;;;;;23.23;68.21;94689.47;5070857;28;20661;-76
2023/07/19 03:33:21;;;;;;;8.05;4.50;;;;;;;23.25;68.52;94692.59;5071270;28;20653;-76
2023/07/19 03:35:48;;;;;;;6.55;4.38;;;;;;;23.78;66.59;94685.81;5071103;28;20206;-77
2023/07/19 03:38:15;;;;;;;8.38;5.60;;;;;;;24.65;63.76;94673.38;5071130;28;20286;-78
2023/07/19 03:40:43;;;;;;;6.97;4.80;;;;;;;25.52;61.14;94666.13;5071482;28;20581;-78
2023/07/19 03:43:10;;;;;;;7.40;5.00;;;;;;;26.47;58.04;94661.56;5071194;28;20244;-78
2023/07/19 03:45:37;;;;;;;5.72;4.10;;;;;;;26.81;56.79;94657.66;5063683;28;20308;-77
2023/07/19 03:48:04;;;;;;;5.68;4.45;;;;;;;27.17;56.00;94654.88;5066422;28;20222;-77
2023/07/19 03:50:31;;;;;;;7.47;5.35;;;;;;;27.82;53.76;94655.63;5070929;28;20684;-77
2023/07/19 03:52:57;;;;;;;6.60;5.32;;;;;;;28.51;52.52;94644.97;5071184;28;20252;-77
2023/07/19 03:55:24;;;;;;;9.57;5.40;;;;;;;29.20;50.98;94644.50;5071327;28;20207;-77
2023/07/19 03:57:52;;;;;;;8.68;5.68;;;;;;;29.82;49.36;94642.84;5071199;28;20207;-77
2023/07/19 04:00:20;;;;;;;8.57;5.55;;;;;;;30.40;48.05;94629.19;5074397;28;20199;-85
2023/07/19 04:02:46;;;;;;;9.95;5.90;;;;;;;30.02;47.34;94637.00;5073621;28;20210;-85
2023/07/19 04:05:13;;;;;;;11.43;6.05;;;;;;;29.44;48.51;94642.94;5072572;28;20230;-82
2023/07/19 04:07:40;;;;;;;9.48;5.60;;;;;;;29.68;46.73;94643.31;5071139;28;20252;-85
2023/07/19 04:10:07;;;;;;;10.07;5.18;;;;;;;29.54;46.67;94647.38;5071849;28;20203;-77
2023/07/19 04:12:34;;;;;;;7.20;4.97;;;;;;;29.86;45.71;94645.50;5070735;28;20692;-79
2023/07/19 04:15:03;;;;;;;8.88;5.07;;;;;;;30.33;44.79;94651.06;5070961;28;21131;-77
2023/07/19 04:17:30;;;;;;;10.38;4.70;;;;;;;30.12;44.97;94647.00;5069519;28;20199;-78
2023/07/19 04:19:56;;;;;;;7.60;4.50;;;;;;;30.42;43.85;94641.94;5071202;28;20210;-78
2023/07/19 04:22:23;;;;;;;9.65;4.50;;;;;;;30.80;42.60;94633.34;5073241;28;20217;-77
2023/07/19 04:24:50;;;;;;;8.23;5.10;;;;;;;30.59;42.35;94632.16;5069830;28;20231;-78
2023/07/19 04:27:17;;;;;;;8.43;4.82;;;;;;;30.52;43.05;94629.56;5070814;28;20203;-79
2023/07/19 04:29:43;;;;;;;6.40;4.55;;;;;;;31.25;41.60;94630.00;5071501;28;20564;-78
2023/07/19 04:32:11;;;;;;;9.13;4.63;;;;;;;31.72;41.35;94638.06;5070431;28;20238;-79
2023/07/19 04:34:38;;;;;;;8.60;5.15;;;;;;;31.76;40.96;94630.28;5070714;28;20577;-78
2023/07/19 04:37:05;;;;;;;7.18;4.70;;;;;;;32.03;41.10;94627.50;5070560;28;20203;-79
2023/07/19 04:39:32;;;;;;;7.18;4.70;;;;;;;32.58;39.71;94633.09;5070351;28;20223;-78
2023/07/19 04:41:59;;;;;;;8.82;4.93;;;;;;;33.49;37.91;94627.19;5074825;28;20205;-78
2023/07/19 04:44:25;;;;;;;7.18;4.57;;;;;;;33.52;38.42;94619.84;5071493;28;20234;-77
2023/07/19 04:46:52;;;;;;;7.95;4.85;;;;;;;33.40;38.02;94629.28;5070887;28;20206;-77
2023/07/19 04:49:21;;;;;;;9.98;5.13;;;;;;;32.82;38.36;94624.81;5070488;28;20206;-77
2023/07/19 04:51:47;;;;;;;6.05;4.78;;;;;;;33.35;37.85;94638.38;5070905;28;20264;-78
2023/07/19 04:54:14;;;;;;;7.28;5.22;;;;;;;33.33;38.12;94629.66;5070011;28;20233;-79
2023/07/19 04:56:41;;;;;;;8.68;5.30;;;;;;;33.75;36.95;94635.97;5069699;28;20268;-78
2023/07/19 04:59:08;;;;;;;8.38;4.97;;;;;;;33.68;36.91;94627.88;5070714;28;20248;-78
2023/07/19 05:01:34;;;;;;;7.82;5.65;;;;;;;33.48;37.96;94642.53;5071904;28;20206;-77
2023/07/19 05:04:02;;;;;;;5.57;4.57;;;;;;;33.51;38.55;94641.56;5070256;28;20311;-78
2023/07/19 05:06:31;;;;;;;7.13;5.22;;;;;;;32.53;40.48;94647.00;5070109;28;20340;-77
2023/07/19 05:08:58;;;;;;;5.68;4.90;;;;;;;32.35;40.41;94645.75;5070478;28;20202;-77
2023/07/19 05:11:25;;;;;;;7.32;4.95;;;;;;;33.54;39.08;94651.06;5069517;28;20373;-77
2023/07/19 05:13:52;;;;;;;5.78;4.85;;;;;;;33.73;38.38;94646.91;5069677;28;20203;-77
2023/07/19 05:16:19;;;;;;;6.80;5.22;;;;;;;34.11;36.76;94649.00;5072309;28;20264;-78
2023/07/19 05:18:46;;;;;;;8.73;4.70;;;;;;;32.82;38.90;94650.84;5069699;28;20198;-78
2023/07/19 05:21:13;;;;;;;7.45;4.97;;;;;;;33.61;37.75;94628.25;5069029;28;20199;-75
2023/07/19 05:23:41;;;;;;;7.13;4.80;;;;;;;34.95;35.74;94630.91;5069561;28;20252;-80
2023/07/19 05:26:08;;;;;;;10.07;5.43;;;;;;;36.12;33.90;94634.72;5069412;28;20234;-79
2023/07/19 05:28:35;;;;;;;6.68;4.75;;;;;;;36.67;33.40;94623.28;5069080;28;20198;-80
2023/07/19 05:31:03;;;;;;;7.38;5.03;;;;;;;36.14;34.11;94626.53;5069415;28;20284;-80
2023/07/19 05:33:30;;;;;;;10.10;5.00;;;;;;;37.32;32.00;94627.25;5069455;28;20306;-80
2023/07/19 05:35:56;;;;;;;7.00;4.82;;;;;;;37.20;32.29;94631.25;5069398;28;20656;-80
2023/07/19 05:38:23;;;;;;;8.73;5.28;;;;;;;35.66;34.33;94632.56;5068792;28;20207;-80
2023/07/19 05:40:51;;;;;;;7.28;5.32;;;;;;;35.89;34.62;94623.16;5069337;28;20211;-81
2023/07/19 05:43:18;;;;;;;6.75;5.45;;;;;;;35.02;35.34;94630.50;5075418;28;20203;-80
2023/07/19 05:45:45;;;;;;;6.43;5.60;;;;;;;34.13;37.27;94626.81;5068891;28;20230;-81
2023/07/19 05:48:12;;;;;;;7.47;4.97;;;;;;;33.50;37.93;94625.16;5069497;28;20723;-78
2023/07/19 05:50:39;;;;;;;7.20;5.35;;;;;;;33.60;38.15;94621.06;5058294;28;20218;-81
2023/07/19 05:53:06;;;;;;;6.97;5.05;;;;;;;33.52;38.50;94620.63;5069133;28;20620;-80
2023/07/19 05:55:32;;;;;;;6.28;5.57;;;;;;;33.63;38.32;94622.91;5076066;28;20206;-80
2023/07/19 05:58:00;;;;;;;6.18;5.55;;;;;;;33.85;37.80;94614.22;5073995;28;20343;-80
2023/07/19 06:00:28;;;;;;;8.05;6.13;;;;;;;33.74;38.88;94625.97;5066079;28;20245;-81
2023/07/19 06:02:55;;;;;;;8.93;5.57;;;;;;;33.71;38.24;94629.72;5069236;28;20232;-81
2023/07/19 06:05:23;;;;;;;10.80;6.05;;;;;;;32.65;39.78;94620.78;5068292;28;20230;-76
2023/07/19 06:07:50;;;;;;;9.82;6.15;;;;;;;33.75;38.97;94615.50;5067623;28;20268;-80
2023/07/19 06:10:17;;;;;;;9.05;6.05;;;;;;;34.35;37.27;94612.41;5068166;28;20199;-81
2023/07/19 06:12:45;;;;;;;7.80;6.13;;;;;;;34.81;37.26;94609.97;5069814;28;20657;-80
2023/07/19 06:15:13;;;;;;;12.23;6.53;;;;;;;35.50;35.41;94613.34;5068793;28;20260;-80
2023/07/19 06:17:40;;;;;;;9.10;5.10;;;;;;;36.64;33.08;94625.06;5070612;28;20614;-80
2023/07/19 06:20:10;;;;;;;7.45;5.20;;;;;;;37.54;33.10;94625.88;5068031;28;20215;-81
2023/07/19 06:22:37;;;;;;;9.63;5.80;;;;;;;38.19;31.47;94609.00;5068418;28;20290;-80
2023/07/19 06:25:04;;;;;;;7.25;5.82;;;;;;;38.87;30.87;94602.25;5068899;28;20280;-80
2023/07/19 06:27:31;;;;;;;8.75;5.20;;;;;;;40.00;29.43;94604.50;5064367;28;20206;-80
2023/07/19 06:29:59;;;;;;;10.75;5.88;;;;;;;39.40;28.87;94610.50;5068152;28;20295;-79
2023/07/19 06:32:28;;;;;;;9.25;5.47;;;;;;;39.59;29.23;94607.16;5069777;28;20302;-80
2023/07/19 06:34:54;;;;;;;8.15;5.47;;;;;;;39.38;29.65;94607.41;5067850;28;20673;-80
2023/07/19 06:37:21;;;;;;;8.75;5.95;;;;;;;39.51;29.76;94608.97;5086752;28;20202;-80
2023/07/19 06:39:48;;;;;;;8.18;5.70;;;;;;;38.41;31.01;94607.03;5088334;28;20218;-80
2023/07/19 06:42:15;;;;;;;9.20;5.43;;;;;;;38.27;30.87;94608.00;5068449;28;20309;-81
2023/07/19 06:44:42;;;;;;;15.13;5.50;;;;;;;38.65;30.57;94600.16;5066894;28;20203;-79
2023/07/19 06:47:09;;;;;;;9.27;5.40;;;;;;;39.17;29.56;94608.22;5068920;28;20207;-83
2023/07/19 06:49:37;;;;;;;8.82;5.45;;;;;;;39.08;29.51;94600.75;5069171;28;20226;-81
2023/07/19 06:52:05;;;;;;;8.75;5.53;;;;;;;39.60;29.24;94597.38;5088913;28;20732;-81
2023/07/19 06:54:32;;;;;;;9.57;5.45;;;;;;;39.43;28.81;94598.16;5088593;28;20202;-84
2023/07/19 06:56:58;;;;;;;8.18;5.20;;;;;;;39.70;28.72;94604.28;5089097;28;20230;-81
2023/07/19 06:59:25;;;;;;;8.80;6.07;;;;;;;39.32;29.24;94606.66;5087284;28;20198;-78
2023/07/19 07:01:52;;;;;;;8.90;5.75;;;;;;;39.34;29.33;94617.50;5064004;28;20700;-80
2023/07/19 07:04:18;;;;;;;13.13;6.03;;;;;;;39.53;28.89;94612.06;5062858;28;20230;-80
2023/07/19 07:06:47;;;;;;;12.52;5.80;;;;;;;39.83;29.28;94607.34;5068360;28;20231;-80
2023/07/19 07:09:15;;;;;;;12.93;6.28;;;;;;;38.84;29.95;94614.59;5068595;28;20211;-80
2023/07/19 07:11:41;;;;;;;10.45;6.18;;;;;;;39.73;28.70;94603.25;5069385;28;20202;-80
2023/07/19 07:14:10;;;;;;;8.93;5.03;;;;;;;39.80;28.51;94602.72;5088200;28;20210;-81
2023/07/19 07:16:36;;;;;;;9.32;5.07;;;;;;;39.53;29.14;94603.56;5084639;28;20210;-80
2023/07/19 07:19:04;;;;;;;9.02;4.72;;;;;;;38.78;29.20;94605.34;5068345;28;20215;-80
2023/07/19 07:21:31;;;;;;;5.28;4.40;;;;;;;38.25;29.83;94604.16;5067735;28;20203;-80
2023/07/19 07:23:59;;;;;;;6.65;4.75;;;;;;;39.00;28.52;94599.69;5070849;28;20230;-80
2023/07/19 07:26:26;;;;;;;9.05;4.80;;;;;;;39.77;27.95;94595.25;5088103;28;20235;-80
2023/07/19 07:28:53;;;;;;;6.25;4.55;;;;;;;39.91;27.48;94602.69;5084537;28;20675;-79
2023/07/19 07:31:19;;;;;;;7.63;5.03;;;;;;;39.32;28.45;94603.81;5087822;28;20732;-80
2023/07/19 07:33:46;;;;;;;5.50;4.90;;;;;;;39.34;28.72;94598.41;5088515;28;20198;-80
2023/07/19 07:36:13;;;;;;;8.70;5.00;;;;;;;39.51;28.18;94600.47;5087715;28;20213;-79
2023/07/19 07:38:40;;;;;;;7.75;5.10;;;;;;;38.33;30.35;94597.47;5088236;28;20226;-79
2023/07/19 07:41:11;;;;;;;8.95;4.82;;;;;;;37.21;30.91;94604.56;5088421;28;20251;-79
2023/07/19 07:43:38;;;;;;;7.88;5.50;;;;;;;37.34;31.53;94599.25;5088073;28;20202;-79
2023/07/19 07:46:05;;;;;;;16.30;5.53;;;;;;;37.50;31.57;94586.50;5064812;28;20332;-79
2023/07/19 07:48:32;;;;;;;6.85;5.00;;;;;;;37.66;31.40;94582.25;5066361;28;20203;-78
2023/07/19 07:50:59;;;;;;;7.50;5.25;;;;;;;35.13;34.20;94585.63;5068320;28;20211;-76
2023/07/19 07:53:26;;;;;;;9.02;5.45;;;;;;;35.40;35.06;94576.06;5070612;28;20207;-80
2023/07/19 07:55:53;;;;;;;9.75;5.70;;;;;;;35.42;33.86;94572.75;5071127;28;20203;-79
2023/07/19 07:58:21;;;;;;;7.35;5.15;;;;;;;35.80;34.52;94566.91;5070955;28;20207;-80
2023/07/19 08:00:49;;;;;;;8.90;5.80;;;;;;;34.66;34.93;94568.97;5073268;28;20685;-79
2023/07/19 08:03:16;;;;;;;11.32;6.07;;;;;;;34.72;34.71;94564.19;5077614;28;20210;-78
2023/07/19 08:05:42;;;;;;;7.63;4.97;;;;;;;35.38;33.96;94560.94;5091176;28;20230;-80
2023/07/19 08:08:09;;;;;;;7.10;5.05;;;;;;;35.83;33.65;94562.28;5091590;28;20206;-80
2023/07/19 08:10:39;;;;;;;8.73;5.60;;;;;;;36.86;31.64;94562.41;5091087;28;20649;-80
2023/07/19 08:13:05;;;;;;;8.18;5.53;;;;;;;36.78;32.07;94560.50;5084457;28;20574;-79
2023/07/19 08:15:34;;;;;;;5.97;5.05;;;;;;;36.37;31.79;94557.03;5070920;28;20214;-78
2023/07/19 08:18:00;;;;;;;6.38;5.30;;;;;;;36.30;32.05;94558.25;5071375;28;20439;-79
2023/07/19 08:20:27;;;;;;;8.05;5.28;;;;;;;36.25;32.05;94554.09;5071522;28;20207;-78
2023/07/19 08:22:54;;;;;;;7.20;5.10;;;;;;;36.08;31.86;94558.00;5091314;28;20210;-79
2023/07/19 08:25:21;;;;;;;5.93;4.88;;;;;;;36.35;31.68;94553.94;5090908;28;20212;-79
2023/07/19 08:27:48;;;;;;;7.80;5.25;;;;;;;36.81;31.73;94559.50;5091016;28;20280;-80
2023/07/19 08:30:16;;;;;;;8.80;5.75;;;;;;;36.72;31.59;94562.53;5091219;28;20209;-80
2023/07/19 08:32:45;;;;;;;7.55;5.15;;;;;;;36.29;31.38;94553.88;5090382;28;20441;-79
2023/07/19 08:35:14;;;;;;;8.00;5.30;;;;;;;36.39;31.36;94563.72;5090849;28;20202;-79
2023/07/19 08:37:42;;;;;;;7.22;5.38;;;;;;;35.86;33.06;94559.28;5091001;28;20202;-79
2023/07/19 08:40:10;;;;;;;9.07;5.50;;;;;;;34.81;34.41;94564.13;5090418;28;20728;-77
2023/07/19 08:42:38;;;;;;;7.95;4.57;;;;;;;34.59;33.20;94567.31;5090571;28;20259;-79
2023/07/19 08:45:06;;;;;;;6.47;4.95;;;;;;;35.27;32.85;94551.03;5083354;28;20655;-78
2023/07/19 08:47:34;;;;;;;7.38;5.43;;;;;;;35.25;32.76;94547.91;5060534;28;20645;-79
2023/07/19 08:50:04;;;;;;;7.72;5.60;;;;;;;34.63;33.17;94536.16;5070419;28;20210;-79
2023/07/19 08:52:32;;;;;;;8.48;5.53;;;;;;;34.68;33.42;94538.28;5070125;28;20195;-79
2023/07/19 08:54:59;;;;;;;7.30;5.28;;;;;;;34.08;34.43;94545.91;5070273;28;20206;-79
2023/07/19 08:57:26;;;;;;;8.05;5.07;;;;;;;34.39;34.10;94533.47;5070009;28;20563;-79
2023/07/19 08:59:53;;;;;;;7.18;5.53;;;;;;;34.17;34.94;94528.16;5071811;28;20264;-78
2023/07/19 09:02:20;;;;;;;7.75;6.03;;;;;;;33.57;35.77;94520.88;5069836;28;20234;-80
2023/07/19 09:05:06;;;;;;;6.32;5.68;;;;;;;32.87;35.85;94520.31;5069089;28;20198;-78
2023/07/19 09:07:33;;;;;;;11.85;6.10;;;;;;;32.71;35.28;94512.25;5069441;28;20305;-79
2023/07/19 09:10:00;;;;;;;5.95;5.28;;;;;;;32.93;36.68;94517.66;5070020;28;20214;-81
2023/07/19 09:12:36;;;;;;;7.90;5.78;;;;;;;33.77;35.83;94512.59;5070998;28;20207;-78
2023/07/19 09:15:03;;;;;;;10.55;5.25;;;;;;;34.37;35.27;94503.00;5080567;28;20198;-78
2023/07/19 09:17:30;;;;;;;8.43;5.88;;;;;;;34.34;34.10;94509.59;5071787;28;20206;-79
2023/07/19 09:19:56;;;;;;;8.75;5.80;;;;;;;34.73;33.76;94507.41;5089813;28;20202;-78
2023/07/19 09:22:28;;;;;;;9.95;6.07;;;;;;;34.71;33.83;94503.56;5087195;28;20202;-78
2023/07/19 09:25:01;;;;;;;8.98;5.53;;;;;;;35.01;35.44;94510.66;5070172;28;20199;-78
2023/07/19 09:27:28;;;;;;;8.68;6.30;;;;;;;34.31;34.34;94504.91;5087657;28;20411;-79
2023/07/19 09:29:55;;;;;;;6.68;5.65;;;;;;;34.30;34.96;94505.44;5078144;28;20211;-79
2023/07/19 09:32:22;;;;;;;8.20;5.65;;;;;;;34.47;34.80;94501.63;5068893;28;20248;-76
2023/07/19 09:34:53;;;;;;;7.50;5.82;;;;;;;34.87;33.94;94497.41;5069878;28;20206;-79
2023/07/19 09:37:20;;;;;;;10.32;5.85;;;;;;;34.36;33.99;94501.44;5069337;28;20272;-79
2023/07/19 09:39:49;;;;;;;7.82;5.70;;;;;;;34.44;35.35;94502.59;5069479;28;20313;-79
2023/07/19 09:42:17;;;;;;;7.95;5.90;;;;;;;34.45;34.36;94498.50;5068952;28;20218;-78
2023/07/19 09:44:46;;;;;;;10.32;6.25;;;;;;;34.97;34.62;94498.09;5069290;28;20207;-79
2023/07/19 09:47:14;;;;;;;8.00;6.28;;;;;;;34.91;33.23;94492.34;5068947;28;20264;-80
2023/07/19 09:49:42;;;;;;;8.32;6.38;;;;;;;34.36;34.60;94483.78;5068997;28;20662;-79
2023/07/19 09:52:09;;;;;;;7.70;6.40;;;;;;;33.54;36.25;94488.88;5068995;28;20206;-80
2023/07/19 09:54:36;;;;;;;8.77;6.53;;;;;;;34.01;35.26;94480.84;5068935;28;20593;-79
2023/07/19 09:57:05;;;;;;;7.57;6.25;;;;;;;34.38;34.56;94475.63;5068744;28;20218;-79
2023/07/19 09:59:35;;;;;;;13.38;6.38;;;;;;;34.04;35.20;94485.47;5070871;28;20197;-77
2023/07/19 10:02:03;;;;;;;9.63;6.43;;;;;;;34.04;35.16;94475.00;5068492;28;20256;-79
2023/07/19 10:04:37;;;;;;;9.30;6.13;;;;;;;34.56;34.97;94473.38;5068769;28;20207;-79
2023/07/19 10:07:05;;;;;;;7.68;6.07;;;;;;;34.16;36.37;94462.72;5068898;28;20227;-79
2023/07/19 10:09:33;;;;;;;8.45;6.22;;;;;;;34.35;31.86;94468.94;5068971;28;20264;-79
2023/07/19 10:12:01;;;;;;;8.88;6.25;;;;;;;34.62;31.38;94458.59;5068485;28;20662;-79
2023/07/19 10:14:32;;;;;;;10.32;6.00;;;;;;;35.01;31.18;94464.84;5068002;28;20724;-78
2023/07/19 10:17:01;;;;;;;8.82;6.45;;;;;;;34.89;31.71;94452.66;5068783;28;20207;-79
2023/07/19 10:19:28;;;;;;;18.00;7.15;;;;;;;35.39;31.16;94452.59;5068481;28;20206;-79
2023/07/19 10:22:02;;;;;;;9.38;6.32;;;;;;;35.79;31.95;94449.75;5068845;28;20294;-79
2023/07/19 10:24:29;;;;;;;11.55;6.40;;;;;;;35.18;34.16;94455.34;5055971;28;20205;-78
2023/07/19 10:26:56;;;;;;;11.88;5.97;;;;;;;34.92;31.44;94451.66;5068385;28;20250;-80
2023/07/19 10:29:24;;;;;;;10.75;5.88;;;;;;;35.32;31.16;94453.00;5068729;28;20211;-80
2023/07/19 10:31:53;;;;;;;6.10;4.95;;;;;;;35.40;29.60;94440.78;5068291;28;20349;-80
2023/07/19 10:34:29;;;;;;;7.53;5.85;;;;;;;35.14;31.44;94445.56;5068339;28;20222;-79
2023/07/19 10:37:02;;;;;;;12.73;5.80;;;;;;;35.18;31.50;94441.28;5084443;28;20206;-80
2023/07/19 10:39:28;;;;;;;8.10;5.40;;;;;;;35.13;30.47;94435.56;5088560;28;20637;-79
2023/07/19 10:41:55;;;;;;;11.05;5.55;;;;;;;34.74;30.62;94435.00;5088310;28;20228;-80
2023/07/19 10:44:24;;;;;;;7.22;5.80;;;;;;;34.90;30.47;94442.94;5088585;28;20261;-78
2023/07/19 10:46:53;;;;;;;11.68;5.70;;;;;;;34.77;30.02;94434.03;5056946;28;20226;-78
2023/07/19 10:49:21;;;;;;;9.57;6.32;;;;;;;34.94;32.28;94432.25;5078930;28;20199;-80
2023/07/19 10:51:55;;;;;;;12.77;6.40;;;;;;;34.36;31.61;94433.91;5072838;28;20203;-78
2023/07/19 10:54:22;;;;;;;8.90;6.30;;;;;;;35.17;30.74;94434.09;5068384;28;20215;-79
2023/07/19 10:56:50;;;;;;;9.07;5.97;;;;;;;35.17;31.05;94433.31;5068739;28;20294;-80
2023/07/19 10:59:17;;;;;;;7.85;5.65;;;;;;;34.85;32.72;94435.19;5069548;28;20671;-75
2023/07/19 11:01:44;;;;;;;9.45;5.82;;;;;;;35.05;31.10;94432.41;5068421;28;20243;-82
2023/07/19 11:04:13;;;;;;;13.90;6.20;;;;;;;34.98;31.10;94427.19;5068193;28;20215;-79
2023/07/19 11:06:54;;;;;;;12.43;6.20;;;;;;;35.53;30.57;94432.78;5075565;28;20243;-79
2023/07/19 11:09:22;;;;;;;9.45;5.97;;;;;;;35.78;30.44;94431.28;5088289;28;20251;-77
2023/07/19 11:11:49;;;;;;;10.40;6.22;;;;;;;36.02;29.84;94422.53;5088512;28;20271;-79
2023/07/19 11:14:28;;;;;;;7.95;5.78;;;;;;;35.95;29.77;94429.38;5085129;28;20268;-79
2023/07/19 11:16:56;;;;;;;9.63;6.03;;;;;;;35.68;30.41;94415.75;5068190;28;20577;-78
2023/07/19 11:19:34;;;;;;;7.45;5.13;;;;;;;35.00;31.56;94419.00;5067894;28;20214;-77
2023/07/19 11:22:01;;;;;;;8.55;5.35;;;;;;;34.93;31.34;94430.69;5067892;28;20202;-76
2023/07/19 11:24:35;;;;;;;6.55;4.25;;;;;;;34.42;30.57;94420.72;5068265;28;20214;-76
2023/07/19 11:27:02;;;;;;;8.82;5.80;;;;;;;33.77;31.45;94419.06;5068918;28;20684;-76
2023/07/19 11:29:30;;;;;;;5.85;5.03;;;;;;;33.84;31.82;94411.03;5071374;28;20210;-78
2023/07/19 11:32:16;;;;;;;6.55;4.97;;;;;;;33.67;31.86;94412.72;5072186;28;20312;-77
2023/07/19 11:34:52;;;;;;;6.82;4.78;;;;;;;33.84;31.54;94410.25;5070875;28;20187;-78